createdAt,value
2023-01-28T00:00:59.894Z,264.58
2023-01-28T00:04:05.825Z,264.03
2023-01-28T00:07:12.420Z,259.77
2023-01-28T00:10:19.378Z,248.55
2023-01-28T00:13:25.997Z,249.83
2023-01-28T00:16:34.754Z,258.15
2023-01-28T00:19:41.323Z,274.26
2023-01-28T00:22:52.260Z,334.55
2023-01-28T00:26:02.185Z,289.42
2023-01-28T00:29:08.181Z,264.27
2023-01-28T00:32:19.160Z,250.84
2023-01-28T00:35:25.097Z,259.18
2023-01-28T00:38:32.490Z,273.58
2023-01-28T00:41:38.269Z,273.51
2023-01-28T00:44:44.898Z,262.56
2023-01-28T00:47:53.285Z,254.74
2023-01-28T00:51:00.004Z,242.35
2023-01-28T00:54:06.208Z,224.60
2023-01-28T00:57:13.424Z,222.93
2023-01-28T01:00:22.028Z,218.92
2023-01-28T01:03:31.485Z,210.11
2023-01-28T01:06:43.755Z,212.65
2023-01-28T01:09:52.715Z,213.68
2023-01-28T01:12:59.360Z,216.03
2023-01-28T01:16:09.909Z,209.46
2023-01-28T01:19:18.329Z,204.59
2023-01-28T01:22:24.943Z,222.70
2023-01-28T01:25:30.917Z,218.06
2023-01-28T01:28:37.798Z,213.79
2023-01-28T01:31:43.735Z,212.90
2023-01-28T01:34:57.680Z,208.91
2023-01-28T01:38:10.868Z,207.22
2023-01-28T01:41:30.379Z,208.76
2023-01-28T01:45:04.795Z,201.56
2023-01-28T01:48:24.272Z,206.92
2023-01-28T01:51:39.199Z,198.61
2023-01-28T01:54:54.196Z,193.38
2023-01-28T01:58:08.390Z,184.37
2023-01-28T02:01:16.668Z,184.64
2023-01-28T02:04:30.012Z,181.67
2023-01-28T02:07:41.657Z,177.75
2023-01-28T02:10:51.260Z,184.06
2023-01-28T02:14:22.421Z,179.14
2023-01-28T02:17:54.755Z,177.84
2023-01-28T02:21:41.989Z,173.84
2023-01-28T02:26:01.041Z,170.82
2023-01-28T02:29:24.182Z,164.40
2023-01-28T02:32:46.378Z,164.46
2023-01-28T02:36:10.451Z,161.57
2023-01-28T02:39:33.366Z,164.94
2023-01-28T02:42:43.427Z,166.08
2023-01-28T02:46:04.219Z,166.52
2023-01-28T02:49:25.446Z,175.03
2023-01-28T02:53:13.272Z,175.71
2023-01-28T02:56:33.913Z,173.53
2023-01-28T02:59:54.750Z,180.72
2023-01-28T03:03:29.318Z,174.99
2023-01-28T03:06:44.901Z,167.89
2023-01-28T03:10:04.457Z,163.29
2023-01-28T03:13:22.852Z,158.83
2023-01-28T03:16:42.281Z,163.41
2023-01-28T03:20:04.492Z,168.78
2023-01-28T03:23:32.335Z,171.42
2023-01-28T03:27:06.335Z,172.93
2023-01-28T03:30:38.616Z,176.88
2023-01-28T03:34:04.936Z,175.08
2023-01-28T03:37:15.922Z,178.38
2023-01-28T03:40:30.228Z,181.75
2023-01-28T03:43:36.910Z,179.88
2023-01-28T03:46:52.801Z,183.16
2023-01-28T03:50:08.784Z,179.27
2023-01-28T03:53:28.477Z,177.41
2023-01-28T03:56:37.586Z,185.21
2023-01-28T03:59:43.348Z,182.88
2023-01-28T04:02:50.030Z,180.98
2023-01-28T04:06:05.208Z,180.35
2023-01-28T04:09:46.874Z,191.39
2023-01-28T04:13:14.205Z,184.88
2023-01-28T04:16:25.261Z,193.03
2023-01-28T04:19:37.416Z,180.44
2023-01-28T04:22:45.825Z,183.35
2023-01-28T04:26:05.259Z,184.63
2023-01-28T04:29:12.431Z,181.14
2023-01-28T04:32:18.308Z,183.19
2023-01-28T04:35:44.836Z,179.02
2023-01-28T04:39:00.160Z,179.56
2023-01-28T04:42:37.931Z,179.21
2023-01-28T04:45:54.549Z,171.11
2023-01-28T04:49:21.825Z,172.06
2023-01-28T04:52:50.490Z,176.25
2023-01-28T04:56:06.783Z,172.44
2023-01-28T04:59:35.456Z,175.74
2023-01-28T05:02:44.070Z,172.87
2023-01-28T05:05:50.021Z,167.17
2023-01-28T05:09:02.060Z,166.38
2023-01-28T05:12:09.630Z,169.03
2023-01-28T05:15:26.497Z,175.30
2023-01-28T05:18:33.828Z,155.75
2023-01-28T05:21:48.574Z,154.73
2023-01-28T05:25:11.979Z,156.84
2023-01-28T05:28:19.006Z,159.12
2023-01-28T05:31:29.453Z,164.95
2023-01-28T05:34:38.333Z,165.56
2023-01-28T05:37:49.629Z,178.41
2023-01-28T05:40:58.971Z,175.62
2023-01-28T05:44:05.040Z,175.33
2023-01-28T05:47:32.910Z,171.50
2023-01-28T05:50:43.988Z,179.50
2023-01-28T05:53:56.337Z,174.03
2023-01-28T05:57:02.205Z,187.01
2023-01-28T06:00:12.275Z,181.85
2023-01-28T06:03:23.261Z,181.00
2023-01-28T06:06:29.971Z,196.01
2023-01-28T06:09:36.328Z,202.41
2023-01-28T06:12:43.552Z,184.07
2023-01-28T06:16:09.016Z,180.85
2023-01-28T06:19:29.155Z,180.74
2023-01-28T06:22:34.873Z,196.66
2023-01-28T06:25:41.707Z,185.83
2023-01-28T06:28:51.224Z,190.69
2023-01-28T06:31:57.844Z,197.46
2023-01-28T06:35:19.466Z,205.94
2023-01-28T06:38:28.027Z,184.66
2023-01-28T06:41:33.929Z,188.28
2023-01-28T06:44:40.513Z,194.17
2023-01-28T06:47:46.267Z,198.52
2023-01-28T06:50:56.513Z,203.86
2023-01-28T06:54:04.925Z,232.16
2023-01-28T06:57:11.468Z,229.75
2023-01-28T07:00:18.726Z,226.46
2023-01-28T07:03:25.557Z,196.71
2023-01-28T07:06:33.931Z,178.89
2023-01-28T07:09:40.594Z,182.58
2023-01-28T07:12:46.468Z,186.64
2023-01-28T07:15:53.250Z,180.90
2023-01-28T07:18:59.018Z,177.08
2023-01-28T07:22:08.210Z,178.41
2023-01-28T07:25:16.819Z,177.19
2023-01-28T07:28:24.156Z,183.37
2023-01-28T07:31:30.026Z,192.90
2023-01-28T07:34:37.831Z,187.93
2023-01-28T07:37:46.216Z,195.05
2023-01-28T07:40:52.892Z,185.45
2023-01-28T07:43:58.658Z,194.38
2023-01-28T07:47:19.771Z,220.24
2023-01-28T07:50:25.832Z,207.45
2023-01-28T07:53:35.148Z,208.05
2023-01-28T07:56:41.008Z,184.02
2023-01-28T07:59:47.567Z,197.52
2023-01-28T08:02:58.029Z,220.95
2023-01-28T08:06:04.775Z,208.90
2023-01-28T08:09:13.191Z,198.35
2023-01-28T08:12:19.786Z,205.09
2023-01-28T08:15:29.931Z,196.73
2023-01-28T08:18:36.730Z,212.41
2023-01-28T08:21:42.547Z,232.33
2023-01-28T08:24:51.717Z,199.18
2023-01-28T08:27:57.422Z,197.36
2023-01-28T08:31:04.463Z,187.66
2023-01-28T08:34:16.324Z,184.04
2023-01-28T08:37:23.039Z,203.79
2023-01-28T08:40:32.442Z,205.30
2023-01-28T08:43:39.099Z,195.37
2023-01-28T08:46:44.888Z,189.97
2023-01-28T08:49:51.495Z,201.13
2023-01-28T08:53:03.686Z,210.16
2023-01-28T08:56:14.561Z,211.68
2023-01-28T08:59:20.312Z,220.70
2023-01-28T09:02:31.784Z,209.51
2023-01-28T09:05:39.165Z,202.80
2023-01-28T09:08:45.784Z,201.78
2023-01-28T09:11:54.191Z,222.17
2023-01-28T09:15:01.264Z,199.63
2023-01-28T09:18:09.964Z,205.88
2023-01-28T09:21:16.518Z,212.20
2023-01-28T09:24:27.945Z,217.03
2023-01-28T09:27:37.297Z,227.96
2023-01-28T09:30:43.126Z,214.16
2023-01-28T09:33:59.425Z,208.46
2023-01-28T09:37:19.923Z,194.86
2023-01-28T09:40:38.564Z,191.78
2023-01-28T09:44:15.521Z,195.86
2023-01-28T09:47:32.159Z,221.37
2023-01-28T09:50:44.736Z,220.60
2023-01-28T09:54:00.712Z,214.73
2023-01-28T09:57:17.149Z,216.43
2023-01-28T10:00:34.268Z,222.08
2023-01-28T10:03:57.894Z,217.69
2023-01-28T10:07:30.710Z,201.63
2023-01-28T10:10:47.531Z,206.61
2023-01-28T10:14:12.174Z,209.18
2023-01-28T10:17:31.797Z,190.68
2023-01-28T10:20:47.290Z,201.78
2023-01-28T10:24:06.793Z,196.99
2023-01-28T10:27:26.313Z,196.72
2023-01-28T10:30:42.921Z,185.63
2023-01-28T10:33:54.323Z,181.15
2023-01-28T10:37:09.543Z,192.66
2023-01-28T10:40:22.397Z,194.93
2023-01-28T10:43:34.133Z,203.35
2023-01-28T10:46:41.246Z,184.11
2023-01-28T10:50:05.273Z,205.96
2023-01-28T10:53:11.913Z,191.61
2023-01-28T10:56:27.714Z,166.81
2023-01-28T10:59:41.929Z,178.65
2023-01-28T11:02:47.792Z,186.51
2023-01-28T11:06:00.440Z,181.00
2023-01-28T11:09:06.212Z,179.08
2023-01-28T11:12:22.680Z,167.02
2023-01-28T11:15:28.675Z,164.29
2023-01-28T11:18:42.622Z,171.19
2023-01-28T11:22:00.864Z,181.34
2023-01-28T11:25:22.947Z,178.97
2023-01-28T11:28:30.716Z,138.76
2023-01-28T11:31:47.205Z,146.80
2023-01-28T11:34:57.601Z,141.09
2023-01-28T11:38:06.785Z,152.21
2023-01-28T11:41:19.508Z,158.84
2023-01-28T11:44:30.676Z,153.10
2023-01-28T11:48:05.462Z,160.97
2023-01-28T11:51:38.337Z,169.26
2023-01-28T11:55:11.206Z,179.65
2023-01-28T11:58:33.815Z,179.90
2023-01-28T12:01:55.519Z,174.02
2023-01-28T12:05:31.661Z,175.72
2023-01-28T12:08:53.466Z,165.43
2023-01-28T12:12:31.971Z,168.17
2023-01-28T12:16:05.929Z,190.00
2023-01-28T12:19:35.311Z,202.14
2023-01-28T12:23:11.413Z,182.78
2023-01-28T12:26:30.308Z,196.06
2023-01-28T12:29:54.101Z,202.91
2023-01-28T12:33:34.453Z,193.13
2023-01-28T12:37:01.521Z,226.15
2023-01-28T12:40:45.357Z,216.67
2023-01-28T12:44:04.080Z,223.17
2023-01-28T12:47:25.346Z,213.55
2023-01-28T12:50:40.595Z,233.57
2023-01-28T12:53:58.797Z,243.37
2023-01-28T12:57:11.560Z,248.38
2023-01-28T13:00:32.008Z,244.85
2023-01-28T13:03:55.142Z,270.07
2023-01-28T13:07:09.662Z,270.80
2023-01-28T13:10:28.534Z,266.85
2023-01-28T13:13:39.819Z,270.04
2023-01-28T13:16:45.791Z,259.46
2023-01-28T13:19:55.127Z,290.52
2023-01-28T13:23:06.838Z,294.10
2023-01-28T13:26:32.016Z,285.09
2023-01-28T13:29:40.268Z,273.90
2023-01-28T13:33:00.094Z,279.74
2023-01-28T13:36:30.357Z,267.92
2023-01-28T13:39:40.352Z,262.47
2023-01-28T13:42:46.227Z,258.49
2023-01-28T13:46:03.710Z,280.28
2023-01-28T13:49:26.380Z,264.90
2023-01-28T13:52:48.530Z,277.89
2023-01-28T13:56:02.005Z,398.12
2023-01-28T13:59:47.695Z,269.81
2023-01-28T14:03:50.717Z,256.61
2023-01-28T14:07:29.791Z,277.12
2023-01-28T14:11:01.821Z,270.44
2023-01-28T14:14:44.769Z,272.42
2023-01-28T14:17:55.216Z,281.53
2023-01-28T14:21:12.501Z,290.56
2023-01-28T14:24:22.660Z,279.72
2023-01-28T14:27:45.310Z,286.75
2023-01-28T14:31:00.932Z,296.74
2023-01-28T14:34:23.005Z,307.26
2023-01-28T14:37:35.008Z,300.52
2023-01-28T14:40:44.061Z,301.36
2023-01-28T14:43:53.128Z,293.75
2023-01-28T14:47:35.453Z,296.81
2023-01-28T14:51:07.681Z,284.96
2023-01-28T14:54:49.719Z,283.21
2023-01-28T14:58:04.238Z,282.91
2023-01-28T15:01:27.127Z,281.58
2023-01-28T15:04:36.983Z,290.64
2023-01-28T15:07:49.196Z,292.98
2023-01-28T15:10:59.292Z,265.74
2023-01-28T15:14:06.582Z,281.02
2023-01-28T15:17:29.390Z,303.81
2023-01-28T15:20:37.054Z,280.07
2023-01-28T15:23:46.121Z,278.76
2023-01-28T15:26:53.625Z,286.19
2023-01-28T15:30:02.765Z,285.84
2023-01-28T15:33:18.553Z,314.92
2023-01-28T15:36:25.112Z,344.46
2023-01-28T15:39:33.407Z,372.59
2023-01-28T15:42:40.279Z,347.79
2023-01-28T15:45:51.011Z,345.52
2023-01-28T15:49:06.328Z,321.98
2023-01-28T15:52:13.510Z,334.22
2023-01-28T15:55:40.195Z,326.48
2023-01-28T15:58:47.333Z,325.61
2023-01-28T16:01:53.587Z,343.58
2023-01-28T16:05:08.435Z,354.05
2023-01-28T16:08:29.568Z,357.09
2023-01-28T16:11:45.102Z,346.99
2023-01-28T16:14:57.502Z,352.07
2023-01-28T16:18:05.446Z,365.18
2023-01-28T16:21:22.360Z,380.06
2023-01-28T16:24:32.507Z,383.37
2023-01-28T16:27:38.364Z,398.37
2023-01-28T16:30:45.088Z,401.87
2023-01-28T16:33:51.672Z,411.80
2023-01-28T16:37:13.349Z,426.30
2023-01-28T16:40:27.871Z,432.10
2023-01-28T16:43:44.687Z,421.54
2023-01-28T16:46:50.702Z,408.70
2023-01-28T16:49:57.587Z,381.53
2023-01-28T16:53:06.156Z,407.10
2023-01-28T16:56:30.704Z,410.52
2023-01-28T16:59:42.211Z,408.42
2023-01-28T17:02:49.122Z,404.27
2023-01-28T17:05:55.081Z,408.24
2023-01-28T17:09:06.578Z,423.02
2023-01-28T17:12:12.441Z,425.98
2023-01-28T17:15:19.767Z,382.96
2023-01-28T17:18:26.116Z,423.59
2023-01-28T17:21:36.446Z,470.02
2023-01-28T17:24:44.865Z,427.80
2023-01-28T17:27:53.023Z,457.55
2023-01-28T17:30:58.866Z,543.10
2023-01-28T17:34:07.272Z,458.46
2023-01-28T17:37:13.061Z,440.90
2023-01-28T17:40:26.175Z,431.22
2023-01-28T17:43:31.935Z,438.32
2023-01-28T17:46:38.608Z,484.14
2023-01-28T17:49:44.392Z,510.31
2023-01-28T17:52:51.189Z,539.30
2023-01-28T17:55:59.590Z,554.60
2023-01-28T17:59:17.458Z,514.82
2023-01-28T18:02:26.255Z,479.78
2023-01-28T18:05:32.989Z,461.61
2023-01-28T18:08:39.034Z,449.37
2023-01-28T18:11:48.651Z,458.47
2023-01-28T18:14:54.891Z,459.17
2023-01-28T18:18:08.598Z,443.29
2023-01-28T18:21:54.213Z,430.80
2023-01-28T18:25:00.991Z,434.45
2023-01-28T18:28:09.373Z,433.15
2023-01-28T18:31:16.145Z,429.33
2023-01-28T18:34:21.998Z,436.03
2023-01-28T18:37:28.672Z,457.49
2023-01-28T18:40:34.445Z,468.69
2023-01-28T18:43:44.167Z,490.95
2023-01-28T18:46:49.945Z,490.83
2023-01-28T18:49:56.709Z,478.09
2023-01-28T18:53:02.637Z,512.75
2023-01-28T18:56:15.620Z,555.61
2023-01-28T18:59:24.240Z,569.67
2023-01-28T19:02:31.034Z,594.70
2023-01-28T19:05:42.162Z,629.57
2023-01-28T19:08:56.455Z,625.72
2023-01-28T19:12:02.224Z,803.62
2023-01-28T19:15:15.931Z,1197.36
2023-01-28T19:18:21.978Z,671.69
2023-01-28T19:21:30.568Z,624.89
2023-01-28T19:24:36.609Z,635.90
2023-01-28T19:27:43.402Z,627.16
2023-01-28T19:30:52.886Z,637.90
2023-01-28T19:34:02.835Z,670.42
2023-01-28T19:37:08.576Z,641.49
2023-01-28T19:40:16.460Z,654.03
2023-01-28T19:43:23.817Z,632.69
2023-01-28T19:46:33.824Z,663.98
2023-01-28T19:49:40.378Z,553.28
2023-01-28T19:52:47.038Z,515.24
2023-01-28T19:55:54.753Z,550.20
2023-01-28T19:59:01.383Z,528.23
2023-01-28T20:02:09.899Z,511.36
2023-01-28T20:05:16.844Z,508.26
2023-01-28T20:08:22.833Z,492.94
2023-01-28T20:11:31.677Z,496.72
2023-01-28T20:14:40.988Z,505.48
2023-01-28T20:17:50.219Z,500.97
2023-01-28T20:20:56.937Z,485.00
2023-01-28T20:24:06.747Z,456.11
2023-01-28T20:27:12.685Z,405.76
2023-01-28T20:30:20.727Z,401.16
2023-01-28T20:33:29.217Z,375.09
2023-01-28T20:36:36.086Z,337.44
2023-01-28T20:39:42.066Z,340.42
2023-01-28T20:42:51.273Z,312.26
2023-01-28T20:45:59.006Z,324.63
2023-01-28T20:49:10.422Z,334.95
2023-01-28T20:52:17.167Z,305.48
2023-01-28T20:55:28.825Z,326.39
2023-01-28T20:58:35.406Z,366.67
2023-01-28T21:01:42.393Z,355.30
2023-01-28T21:04:50.805Z,370.27
2023-01-28T21:07:57.475Z,393.88
2023-01-28T21:11:05.356Z,383.74
2023-01-28T21:14:12.714Z,353.02
2023-01-28T21:17:18.662Z,337.44
2023-01-28T21:20:32.512Z,298.52
2023-01-28T21:23:38.430Z,305.00
2023-01-28T21:26:45.018Z,281.02
2023-01-28T21:29:50.823Z,272.75
2023-01-28T21:32:58.051Z,282.36
2023-01-28T21:36:13.047Z,268.68
2023-01-28T21:39:20.029Z,265.10
2023-01-28T21:42:25.956Z,263.67
2023-01-28T21:45:33.432Z,260.84
2023-01-28T21:48:39.370Z,248.48
2023-01-28T21:51:51.590Z,250.26
2023-01-28T21:54:59.157Z,251.38
2023-01-28T21:58:28.232Z,250.27
2023-01-28T22:01:34.345Z,216.83
2023-01-28T22:04:44.365Z,221.47
2023-01-28T22:07:52.713Z,235.12
2023-01-28T22:10:59.369Z,271.66
2023-01-28T22:14:13.025Z,253.03
2023-01-28T22:17:20.434Z,263.60
2023-01-28T22:20:27.493Z,228.21
2023-01-28T22:23:42.942Z,226.42
2023-01-28T22:26:52.810Z,238.51
2023-01-28T22:29:59.660Z,189.69
2023-01-28T22:33:05.495Z,135.21
2023-01-28T22:36:16.890Z,141.67
2023-01-28T22:39:25.325Z,118.46
2023-01-28T22:42:31.922Z,106.90
2023-01-28T22:45:37.706Z,102.43
2023-01-28T22:48:44.793Z,95.02
2023-01-28T22:51:50.624Z,97.15
2023-01-28T22:55:00.090Z,112.17
2023-01-28T22:58:09.463Z,117.70
2023-01-28T23:01:18.090Z,120.56
2023-01-28T23:04:23.859Z,139.19
2023-01-28T23:07:30.467Z,165.42
2023-01-28T23:10:39.027Z,164.31
2023-01-28T23:13:59.596Z,172.31
2023-01-28T23:17:28.176Z,163.07
2023-01-28T23:20:49.485Z,151.87
2023-01-28T23:24:13.096Z,146.10
2023-01-28T23:27:22.313Z,141.28
2023-01-28T23:30:28.127Z,149.61
2023-01-28T23:33:41.933Z,136.86
2023-01-28T23:36:48.813Z,132.91
2023-01-28T23:39:56.343Z,140.73
2023-01-28T23:43:06.287Z,143.18
2023-01-28T23:46:13.195Z,164.61
2023-01-28T23:49:31.943Z,182.22
2023-01-28T23:52:42.031Z,181.05
2023-01-28T23:55:47.810Z,181.30
2023-01-28T23:58:59.039Z,184.41
